Time;durP1;ratioP1;P1;durP2;ratioP2;P2;SDS_P1;SDS_P2;PMS_P1;PMS_P2;Temp;Humidity;BMP_temperature;BMP_pressure;BME280_temperature;BME280_humidity;BME280_pressure;Samples;Min_cycle;Max_cycle;Signal;HPM_P1;HPM_P2
2022/09/19 00:01:24;;;;;;;8.70;4.20;;;9.10;99.90;;;;;;6311309;22;20478;-63
2022/09/19 00:04:01;;;;;;;8.83;4.00;;;9.10;99.90;;;;;;6310397;22;20393;-63
2022/09/19 00:06:29;;;;;;;9.63;4.93;;;9.10;99.90;;;;;;6311485;22;20506;-63
2022/09/19 00:09:03;;;;;;;14.07;5.00;;;9.10;99.90;;;;;;6311769;22;20698;-63
2022/09/19 00:11:34;;;;;;;11.87;4.23;;;9.10;99.90;;;;;;6311758;22;20845;-63
2022/09/19 00:14:04;;;;;;;13.63;4.40;;;9.10;99.90;;;;;;6310482;22;20857;-63
2022/09/19 00:16:33;;;;;;;9.77;4.40;;;9.10;99.90;;;;;;6310784;22;20836;-63
2022/09/19 00:19:04;;;;;;;16.83;4.33;;;9.10;99.90;;;;;;6310948;22;20391;-63
2022/09/19 00:21:33;;;;;;;8.73;4.10;;;9.10;99.90;;;;;;6311081;22;20416;-63
2022/09/19 00:26:46;;;;;;;15.93;3.73;;;9.10;99.90;;;;;;6310732;22;20404;-62
2022/09/19 00:29:15;;;;;;;10.43;4.30;;;9.10;99.90;;;;;;6310800;22;20416;-63
2022/09/19 00:31:46;;;;;;;10.23;4.40;;;9.10;99.90;;;;;;6311053;22;20423;-63
2022/09/19 00:34:15;;;;;;;12.80;4.63;;;9.10;99.90;;;;;;6311265;22;20426;-63
2022/09/19 00:36:43;;;;;;;11.70;3.90;;;9.10;99.90;;;;;;6310577;22;20402;-63
2022/09/19 00:39:13;;;;;;;10.03;3.67;;;9.10;99.90;;;;;;6310463;22;20502;-62
2022/09/19 00:41:40;;;;;;;10.27;3.90;;;9.20;99.90;;;;;;6311750;22;20383;-63
2022/09/19 00:44:41;;;;;;;13.13;3.67;;;9.10;99.90;;;;;;6311473;22;20442;-63
2022/09/19 00:47:14;;;;;;;13.90;4.90;;;9.10;99.90;;;;;;6310324;22;20389;-63
2022/09/19 00:49:47;;;;;;;9.57;3.53;;;9.20;99.90;;;;;;6311020;22;20413;-63
2022/09/19 00:52:19;;;;;;;8.87;3.97;;;9.20;99.90;;;;;;6310502;22;20412;-63
2022/09/19 00:54:49;;;;;;;13.00;4.50;;;9.20;99.90;;;;;;6310694;22;20838;-63
2022/09/19 00:57:19;;;;;;;11.43;4.70;;;9.20;99.90;;;;;;6310413;22;20422;-63
2022/09/19 00:59:51;;;;;;;15.33;4.00;;;9.20;99.90;;;;;;6310822;22;20684;-63
2022/09/19 01:02:23;;;;;;;8.80;3.80;;;9.20;99.90;;;;;;6310727;22;20395;-63
2022/09/19 01:04:53;;;;;;;9.57;3.80;;;9.20;99.90;;;;;;6310155;22;20446;-63
2022/09/19 01:07:28;;;;;;;8.30;3.60;;;9.20;99.90;;;;;;6310598;22;20422;-63
2022/09/19 01:10:03;;;;;;;10.90;3.53;;;9.20;99.90;;;;;;6310116;22;20754;-63
2022/09/19 01:12:47;;;;;;;11.23;4.20;;;9.20;99.90;;;;;;6310808;22;20747;-63
2022/09/19 01:15:28;;;;;;;11.20;3.77;;;9.30;99.90;;;;;;6309876;22;20420;-63
2022/09/19 01:18:06;;;;;;;17.80;3.83;;;9.20;99.90;;;;;;6310624;22;20479;-63
2022/09/19 01:21:37;;;;;;;6.20;4.00;;;9.30;99.90;;;;;;6310634;22;20414;-63
2022/09/19 01:24:20;;;;;;;8.17;4.60;;;9.30;99.90;;;;;;6310597;22;20507;-63
2022/09/19 01:27:09;;;;;;;9.30;3.20;;;9.30;99.90;;;;;;6310171;22;20427;-63
2022/09/19 01:29:42;;;;;;;14.00;4.43;;;9.30;99.90;;;;;;6310020;22;20420;-63
2022/09/19 01:32:17;;;;;;;9.73;3.73;;;9.30;99.90;;;;;;6310383;22;20836;-63
2022/09/19 01:34:49;;;;;;;10.77;3.40;;;9.30;99.90;;;;;;6310106;22;20462;-63
2022/09/19 01:37:19;;;;;;;11.70;3.50;;;9.40;99.90;;;;;;6309759;22;20547;-63
2022/09/19 01:39:49;;;;;;;11.33;4.07;;;9.30;99.90;;;;;;6309906;22;20478;-63
2022/09/19 01:42:22;;;;;;;10.23;4.33;;;9.40;99.90;;;;;;6310362;22;20397;-63
2022/09/19 01:44:53;;;;;;;15.57;4.40;;;9.40;99.90;;;;;;6309851;22;20420;-63
2022/09/19 01:47:30;;;;;;;14.10;3.57;;;9.40;99.90;;;;;;6309789;22;20452;-63
2022/09/19 01:50:05;;;;;;;18.13;4.10;;;9.40;99.90;;;;;;6310542;22;20443;-63
2022/09/19 01:52:48;;;;;;;14.53;4.10;;;9.40;99.90;;;;;;6310413;22;20748;-65
2022/09/19 01:55:25;;;;;;;11.53;3.67;;;9.50;99.90;;;;;;6309465;22;20447;-63
2022/09/19 01:57:59;;;;;;;14.23;4.30;;;9.50;99.90;;;;;;6309774;22;20454;-63
2022/09/19 02:00:28;;;;;;;10.00;4.13;;;9.50;99.90;;;;;;6310524;22;20697;-63
2022/09/19 02:03:12;;;;;;;12.40;4.37;;;9.50;99.90;;;;;;6309590;22;20888;-63
2022/09/19 02:05:50;;;;;;;10.40;4.23;;;9.50;99.90;;;;;;6309870;22;20387;-63
2022/09/19 02:08:24;;;;;;;13.10;4.13;;;9.50;99.90;;;;;;6309864;22;20420;-63
2022/09/19 02:10:56;;;;;;;14.03;4.50;;;9.50;99.90;;;;;;6309237;22;20387;-63
2022/09/19 02:13:27;;;;;;;11.63;3.73;;;9.50;99.90;;;;;;6309261;22;20416;-63
2022/09/19 02:16:00;;;;;;;12.83;4.03;;;9.50;99.90;;;;;;6309991;22;20395;-63
2022/09/19 02:18:31;;;;;;;20.57;5.37;;;9.50;99.90;;;;;;6310040;22;20418;-63
2022/09/19 02:21:05;;;;;;;12.93;4.60;;;9.50;99.90;;;;;;6309771;22;20843;-63
2022/09/19 02:23:37;;;;;;;10.80;4.50;;;9.50;99.90;;;;;;6309281;22;20423;-63
2022/09/19 02:26:09;;;;;;;14.00;4.00;;;9.50;99.90;;;;;;6309560;22;20895;-63
2022/09/19 02:28:41;;;;;;;11.50;4.20;;;9.50;99.90;;;;;;6309476;22;20774;-63
2022/09/19 02:31:15;;;;;;;19.87;4.37;;;9.40;99.90;;;;;;6308937;22;20420;-63
2022/09/19 02:33:47;;;;;;;6.63;5.17;;;9.40;99.90;;;;;;6309263;22;20502;-63
2022/09/19 02:36:18;;;;;;;17.63;5.03;;;9.30;99.90;;;;;;6310159;22;20399;-63
2022/09/19 02:38:50;;;;;;;17.77;3.80;;;9.20;99.90;;;;;;6308288;22;20423;-63
2022/09/19 02:41:26;;;;;;;12.13;5.60;;;9.20;99.90;;;;;;6309487;22;20420;-63
2022/09/19 02:44:01;;;;;;;8.43;3.60;;;9.20;99.90;;;;;;6309013;22;20426;-63
2022/09/19 02:46:36;;;;;;;14.27;4.30;;;9.30;99.90;;;;;;6310332;22;20416;-63
2022/09/19 02:49:09;;;;;;;25.03;7.37;;;9.40;99.90;;;;;;6309126;22;20416;-63
2022/09/19 02:51:40;;;;;;;14.03;4.40;;;9.30;99.90;;;;;;6308970;22;20395;-63
2022/09/19 02:54:14;;;;;;;10.40;4.00;;;9.30;99.90;;;;;;6309411;22;20711;-63
2022/09/19 02:56:47;;;;;;;14.30;4.73;;;9.30;99.90;;;;;;6309585;22;20422;-63
2022/09/19 02:59:20;;;;;;;12.17;4.77;;;9.30;99.90;;;;;;6308964;22;20419;-63
2022/09/19 03:01:56;;;;;;;10.03;4.10;;;9.30;99.90;;;;;;6309622;22;20434;-63
2022/09/19 03:04:29;;;;;;;8.70;4.73;;;9.40;99.90;;;;;;6309715;22;20538;-63
2022/09/19 03:07:06;;;;;;;12.80;4.40;;;9.30;99.90;;;;;;6309752;22;20395;-63
2022/09/19 03:09:35;;;;;;;16.80;5.20;;;9.30;99.90;;;;;;6309665;22;20416;-62
2022/09/19 03:12:11;;;;;;;14.07;4.30;;;9.30;99.90;;;;;;6309605;22;20405;-63
2022/09/19 03:14:38;;;;;;;12.07;3.63;;;9.40;99.90;;;;;;6309614;22;20721;-63
2022/09/19 03:17:08;;;;;;;12.63;4.00;;;9.30;99.90;;;;;;6309704;22;20834;-63
2022/09/19 03:19:41;;;;;;;10.13;4.17;;;9.20;99.90;;;;;;6309882;22;20903;-65
2022/09/19 03:22:11;;;;;;;10.83;4.87;;;9.20;99.90;;;;;;6309773;22;20768;-62
2022/09/19 03:24:38;;;;;;;10.97;3.10;;;9.30;99.90;;;;;;6309202;22;20431;-62
2022/09/19 03:27:06;;;;;;;8.77;3.80;;;9.40;99.90;;;;;;6309213;22;20704;-62
2022/09/19 03:29:33;;;;;;;11.07;4.30;;;9.40;99.90;;;;;;6309780;22;20412;-62
2022/09/19 03:32:00;;;;;;;18.70;4.03;;;9.40;99.90;;;;;;6309095;22;20419;-62
2022/09/19 03:34:32;;;;;;;13.23;4.43;;;9.40;99.90;;;;;;6310061;22;20420;-62
2022/09/19 03:37:00;;;;;;;9.30;4.30;;;9.40;99.90;;;;;;6308734;22;20477;-62
2022/09/19 03:39:27;;;;;;;11.73;4.03;;;9.40;99.90;;;;;;6309286;22;20513;-63
2022/09/19 03:41:55;;;;;;;11.43;4.53;;;9.30;99.90;;;;;;6309925;22;20490;-63
2022/09/19 03:44:22;;;;;;;15.33;4.30;;;9.40;99.90;;;;;;6311788;22;20853;-63
2022/09/19 03:46:50;;;;;;;10.60;4.07;;;9.40;99.90;;;;;;6310901;22;20514;-63
2022/09/19 03:49:19;;;;;;;10.03;4.20;;;9.40;99.90;;;;;;6311088;22;20416;-62
2022/09/19 03:51:49;;;;;;;8.20;4.00;;;9.40;99.90;;;;;;6311711;22;20913;-62
2022/09/19 03:54:19;;;;;;;15.10;4.00;;;9.50;99.90;;;;;;6311451;22;20421;-62
2022/09/19 03:56:47;;;;;;;13.53;4.20;;;9.60;99.90;;;;;;6311276;22;20440;-62
2022/09/19 03:59:14;;;;;;;13.33;4.37;;;9.50;99.90;;;;;;6311404;22;20444;-63
2022/09/19 04:01:42;;;;;;;10.70;4.60;;;9.50;99.90;;;;;;6311098;22;20519;-62
2022/09/19 04:04:10;;;;;;;18.03;5.90;;;9.50;99.90;;;;;;6311533;22;20485;-63
2022/09/19 04:06:40;;;;;;;13.57;4.57;;;9.50;99.90;;;;;;6310777;22;20460;-62
2022/09/19 04:09:09;;;;;;;12.17;4.67;;;9.40;99.90;;;;;;6311428;22;20412;-62
2022/09/19 04:11:39;;;;;;;11.73;3.63;;;9.50;99.90;;;;;;6311072;22;20514;-62
2022/09/19 04:14:06;;;;;;;13.70;4.30;;;9.40;99.90;;;;;;6311037;22;20761;-62
2022/09/19 04:16:36;;;;;;;12.43;4.00;;;9.40;99.90;;;;;;6311051;22;20416;-63
2022/09/19 04:19:09;;;;;;;16.43;4.77;;;9.40;99.90;;;;;;6310013;22;20444;-62
2022/09/19 04:21:36;;;;;;;12.30;4.33;;;9.40;99.90;;;;;;6309816;22;20412;-63
2022/09/19 04:24:03;;;;;;;10.20;3.70;;;9.40;99.90;;;;;;6311155;22;20486;-62
2022/09/19 04:26:32;;;;;;;14.30;3.90;;;9.30;99.90;;;;;;6311043;22;20915;-62
2022/09/19 04:29:02;;;;;;;12.80;4.53;;;9.30;99.90;;;;;;6310073;22;20418;-62
2022/09/19 04:31:35;;;;;;;13.03;4.17;;;9.30;99.90;;;;;;6311212;22;20428;-62
2022/09/19 04:34:03;;;;;;;12.43;4.60;;;9.20;99.90;;;;;;6311515;22;20452;-62
2022/09/19 04:36:31;;;;;;;11.83;3.83;;;9.30;99.90;;;;;;6311441;22;20430;-63
2022/09/19 04:39:02;;;;;;;15.30;4.27;;;9.20;99.90;;;;;;6310295;22;20517;-63
2022/09/19 04:41:33;;;;;;;12.80;3.97;;;9.20;99.90;;;;;;6310690;22;20391;-62
2022/09/19 04:44:02;;;;;;;12.57;3.67;;;9.20;99.90;;;;;;6310574;22;20470;-63
2022/09/19 04:46:30;;;;;;;7.47;3.13;;;9.20;99.90;;;;;;6310986;22;20490;-62
2022/09/19 04:48:58;;;;;;;10.50;3.87;;;9.20;99.90;;;;;;6309562;22;20390;-62
2022/09/19 04:51:26;;;;;;;8.40;3.63;;;9.20;99.90;;;;;;6310397;22;20391;-62
2022/09/19 04:53:53;;;;;;;14.33;4.30;;;9.30;99.90;;;;;;6310131;22;20416;-63
2022/09/19 04:56:20;;;;;;;15.67;4.80;;;9.40;99.90;;;;;;6309636;22;20914;-63
2022/09/19 04:58:51;;;;;;;12.57;4.47;;;9.40;99.90;;;;;;6306825;22;20488;-63
2022/09/19 05:01:19;;;;;;;14.50;5.07;;;9.50;99.90;;;;;;6309127;22;20459;-63
2022/09/19 05:03:47;;;;;;;10.13;4.37;;;9.50;99.90;;;;;;6309975;22;20396;-63
2022/09/19 05:06:15;;;;;;;12.90;4.93;;;9.50;99.90;;;;;;6310399;22;20512;-62
2022/09/19 05:08:42;;;;;;;11.80;4.10;;;9.50;99.90;;;;;;6309921;22;20687;-63
2022/09/19 05:11:10;;;;;;;13.80;4.73;;;9.50;99.90;;;;;;6308990;22;20447;-63
2022/09/19 05:13:40;;;;;;;14.13;4.80;;;9.50;99.90;;;;;;6310343;22;20733;-63
2022/09/19 05:16:13;;;;;;;10.00;4.43;;;9.50;99.90;;;;;;6309722;22;20398;-63
2022/09/19 05:18:40;;;;;;;13.63;4.00;;;9.50;99.90;;;;;;6309787;22;20451;-63
2022/09/19 05:21:13;;;;;;;15.87;4.33;;;9.50;99.90;;;;;;6309868;22;20495;-63
2022/09/19 05:23:42;;;;;;;14.83;4.20;;;9.50;99.90;;;;;;6310578;22;20423;-63
2022/09/19 05:26:12;;;;;;;10.67;4.97;;;9.50;99.90;;;;;;6310909;22;20394;-63
2022/09/19 05:28:41;;;;;;;11.67;4.23;;;9.60;99.90;;;;;;6310348;22;20416;-63
2022/09/19 05:31:09;;;;;;;8.87;4.47;;;9.60;99.90;;;;;;6310093;22;20427;-62
2022/09/19 05:33:37;;;;;;;10.90;4.30;;;9.60;99.90;;;;;;6310078;22;20421;-63
2022/09/19 05:36:05;;;;;;;13.90;4.73;;;9.70;99.90;;;;;;6310301;22;20383;-65
2022/09/19 05:38:34;;;;;;;12.60;4.23;;;9.70;99.90;;;;;;6309684;22;20742;-63
2022/09/19 05:41:06;;;;;;;11.60;3.87;;;9.70;99.90;;;;;;6308863;22;20447;-63
2022/09/19 05:43:33;;;;;;;15.33;4.80;;;9.70;99.90;;;;;;6307576;22;20421;-62
2022/09/19 05:46:01;;;;;;;13.90;4.63;;;9.80;99.90;;;;;;6307672;22;20451;-62
2022/09/19 05:48:37;;;;;;;8.83;3.70;;;9.80;99.90;;;;;;6306994;22;20961;-63
2022/09/19 05:51:04;;;;;;;15.83;5.07;;;9.80;99.90;;;;;;6309075;22;20450;-62
2022/09/19 05:56:16;;;;;;;9.27;4.30;;;9.90;99.90;;;;;;6308873;22;20410;-63
2022/09/19 05:58:44;;;;;;;12.23;5.33;;;9.90;99.90;;;;;;6307770;22;20423;-63
2022/09/19 06:01:13;;;;;;;13.73;3.87;;;9.90;99.90;;;;;;6308941;22;20422;-64
2022/09/19 06:03:42;;;;;;;11.43;4.60;;;10.00;99.90;;;;;;6308484;22;20397;-64
2022/09/19 06:06:11;;;;;;;13.93;4.10;;;10.00;99.90;;;;;;6307778;22;20420;-64
2022/09/19 06:08:40;;;;;;;12.20;5.20;;;10.10;99.90;;;;;;6306173;22;20667;-64
2022/09/19 06:11:08;;;;;;;16.90;4.73;;;10.10;99.90;;;;;;6306996;22;20420;-63
2022/09/19 06:16:20;;;;;;;8.93;4.20;;;10.10;99.90;;;;;;6306709;22;20450;-63
2022/09/19 06:18:49;;;;;;;9.37;4.73;;;10.00;99.90;;;;;;6308081;22;20542;-63
2022/09/19 06:21:16;;;;;;;9.57;4.00;;;10.10;99.90;;;;;;6309390;22;20416;-63
2022/09/19 06:23:46;;;;;;;11.77;5.00;;;10.10;99.90;;;;;;6308338;22;20875;-63
2022/09/19 06:26:15;;;;;;;12.60;5.10;;;10.20;99.90;;;;;;6308607;22;20707;-64
2022/09/19 06:28:42;;;;;;;12.83;4.43;;;10.20;99.90;;;;;;6309967;22;20837;-64
2022/09/19 06:31:09;;;;;;;10.50;4.10;;;10.30;99.90;;;;;;6308701;22;20718;-64
2022/09/19 06:33:36;;;;;;;14.30;4.03;;;10.30;99.90;;;;;;6309563;22;20515;-64
2022/09/19 06:36:06;;;;;;;11.13;4.10;;;10.30;99.90;;;;;;6309780;22;20423;-63
2022/09/19 06:38:35;;;;;;;10.77;3.73;;;10.30;99.90;;;;;;6307809;22;20391;-64
2022/09/19 06:41:06;;;;;;;12.60;5.10;;;10.40;99.90;;;;;;6309648;22;20420;-65
2022/09/19 06:43:34;;;;;;;10.60;3.50;;;10.40;99.90;;;;;;6307864;22;20547;-65
2022/09/19 06:46:01;;;;;;;19.03;4.20;;;10.60;99.90;;;;;;6307478;22;20705;-64
2022/09/19 06:48:29;;;;;;;13.10;3.70;;;10.60;99.90;;;;;;6306284;22;20416;-64
2022/09/19 06:50:56;;;;;;;11.73;3.80;;;10.70;99.90;;;;;;6306288;22;20420;-64
2022/09/19 06:53:25;;;;;;;11.67;4.00;;;10.60;99.90;;;;;;6307064;22;20418;-64
2022/09/19 06:55:52;;;;;;;11.93;3.93;;;10.60;99.90;;;;;;6308415;22;20689;-64
2022/09/19 06:58:20;;;;;;;11.40;3.83;;;10.60;99.90;;;;;;6306769;22;20395;-64
2022/09/19 07:00:47;;;;;;;6.70;3.03;;;10.60;99.90;;;;;;6307694;22;20542;-64
2022/09/19 07:03:16;;;;;;;6.67;3.17;;;10.70;99.90;;;;;;6308007;22;20498;-64
2022/09/19 07:05:45;;;;;;;6.60;3.03;;;10.80;99.90;;;;;;6308334;22;20983;-64
2022/09/19 07:08:15;;;;;;;8.67;3.50;;;10.90;99.90;;;;;;6308740;22;20394;-64
2022/09/19 07:10:44;;;;;;;7.60;3.67;;;11.00;99.90;;;;;;6309004;22;20413;-64
2022/09/19 07:13:14;;;;;;;7.60;2.90;;;11.10;99.90;;;;;;6308680;22;20427;-64
2022/09/19 07:15:42;;;;;;;7.07;3.43;;;11.20;99.90;;;;;;6307826;22;20417;-63
2022/09/19 07:18:10;;;;;;;10.10;3.60;;;11.20;99.90;;;;;;6308684;22;20494;-64
2022/09/19 07:20:38;;;;;;;7.17;3.23;;;11.30;99.90;;;;;;6309397;22;20449;-64
2022/09/19 07:23:08;;;;;;;7.00;3.90;;;11.20;99.90;;;;;;6310292;22;20426;-63
2022/09/19 07:25:37;;;;;;;9.27;4.20;;;11.20;99.90;;;;;;6310334;22;20489;-64
2022/09/19 07:28:09;;;;;;;16.37;4.90;;;11.20;99.90;;;;;;6310332;22;20434;-64
2022/09/19 07:30:40;;;;;;;10.97;3.90;;;11.20;99.90;;;;;;6309300;22;20423;-64
2022/09/19 07:33:08;;;;;;;14.70;3.90;;;11.30;99.90;;;;;;6308404;22;20827;-63
2022/09/19 07:35:37;;;;;;;11.40;3.93;;;11.30;99.90;;;;;;6308227;22;20412;-64
2022/09/19 07:38:06;;;;;;;12.00;4.43;;;11.30;99.90;;;;;;6311053;22;20409;-63
2022/09/19 07:40:34;;;;;;;18.83;4.30;;;11.60;99.90;;;;;;6309787;22;20885;-63
2022/09/19 07:43:05;;;;;;;10.87;4.20;;;11.60;99.90;;;;;;6310714;22;20394;-63
2022/09/19 07:45:36;;;;;;;9.43;3.93;;;11.70;99.90;;;;;;6310525;22;20390;-63
2022/09/19 07:48:06;;;;;;;9.03;4.07;;;11.90;99.90;;;;;;6308035;22;20436;-63
2022/09/19 07:50:35;;;;;;;11.73;3.93;;;12.20;99.90;;;;;;6306542;22;20419;-64
2022/09/19 07:53:04;;;;;;;8.13;3.87;;;12.50;99.90;;;;;;6307518;22;20518;-63
2022/09/19 07:55:32;;;;;;;15.67;4.67;;;12.80;99.90;;;;;;6307495;22;20845;-63
2022/09/19 07:58:00;;;;;;;10.00;3.97;;;13.20;99.90;;;;;;6308206;22;20395;-63
2022/09/19 08:00:29;;;;;;;7.80;4.23;;;13.10;99.90;;;;;;6309323;22;20423;-63
2022/09/19 08:02:58;;;;;;;9.10;3.87;;;13.20;99.90;;;;;;6309732;22;20420;-63
2022/09/19 08:05:27;;;;;;;13.70;4.63;;;13.10;99.90;;;;;;6309169;22;20418;-63
2022/09/19 08:07:56;;;;;;;9.57;3.70;;;13.50;99.90;;;;;;6307851;22;20857;-63
2022/09/19 08:10:24;;;;;;;7.97;3.03;;;13.40;99.90;;;;;;6309096;22;20423;-63
2022/09/19 08:12:52;;;;;;;10.80;4.33;;;13.20;1.00;;;;;;6309238;22;20479;-63
2022/09/19 08:15:20;;;;;;;10.60;3.63;;;13.10;1.00;;;;;;6309421;22;20519;-63
2022/09/19 08:17:57;;;;;;;11.30;3.30;;;13.00;99.90;;;;;;6309426;22;20391;-63
2022/09/19 08:20:25;;;;;;;9.40;3.37;;;13.00;99.90;;;;;;6307088;22;20438;-63
2022/09/19 08:22:58;;;;;;;7.57;3.50;;;13.00;99.90;;;;;;6309542;22;20420;-63
2022/09/19 08:25:25;;;;;;;13.97;4.00;;;13.10;99.90;;;;;;6309885;22;20412;-63
2022/09/19 08:27:58;;;;;;;7.93;3.50;;;13.30;99.90;;;;;;6309664;22;20519;-63
2022/09/19 08:30:27;;;;;;;4.63;2.97;;;13.30;99.90;;;;;;6310089;22;20416;-63
2022/09/19 08:32:56;;;;;;;13.50;3.77;;;13.30;6.80;;;;;;6310752;22;20774;-63
2022/09/19 08:35:29;;;;;;;7.20;3.60;;;13.20;65.40;;;;;;6308768;22;20395;-63
2022/09/19 08:38:00;;;;;;;14.77;4.00;;;13.00;57.00;;;;;;6309088;22;20420;-63
2022/09/19 08:40:30;;;;;;;12.73;4.13;;;13.00;55.70;;;;;;6308052;22;21143;-63
2022/09/19 08:43:09;;;;;;;17.23;5.30;;;13.40;99.90;;;;;;6309270;22;20444;-63
2022/09/19 08:46:04;;;;;;;11.13;4.70;;;13.60;56.10;;;;;;6311116;22;20416;-63
2022/09/19 08:48:49;;;;;;;8.40;3.70;;;13.50;1.00;;;;;;6310532;22;20818;-63
2022/09/19 08:51:24;;;;;;;11.00;3.53;;;14.00;99.90;;;;;;6310097;22;20511;-63
2022/09/19 08:53:55;;;;;;;8.77;3.53;;;14.90;1.00;;;;;;6310673;22;20390;-63
2022/09/19 08:56:23;;;;;;;10.80;3.93;;;14.70;1.00;;;;;;6310680;22;20852;-63
2022/09/19 08:58:55;;;;;;;7.10;3.33;;;15.10;1.00;;;;;;6310226;22;20401;-63
2022/09/19 09:01:26;;;;;;;9.93;3.80;;;15.80;99.90;;;;;;6309476;22;20460;-62
2022/09/19 09:04:07;;;;;;;8.80;3.60;;;15.80;1.00;;;;;;6310015;22;20445;-63
2022/09/19 09:06:47;;;;;;;6.90;3.37;;;16.30;1.00;;;;;;6310508;22;20421;-62
2022/09/19 09:09:23;;;;;;;6.93;2.90;;;16.20;1.00;;;;;;6309737;22;20511;-62
2022/09/19 09:11:58;;;;;;;7.00;3.53;;;16.50;1.00;;;;;;6310395;22;20455;-62
2022/09/19 09:14:43;;;;;;;6.03;3.30;;;17.10;1.00;;;;;;6308880;22;20489;-62
2022/09/19 09:17:20;;;;;;;9.93;4.10;;;17.20;1.00;;;;;;6309683;22;20419;-63
2022/09/19 09:20:03;;;;;;;12.03;5.10;;;17.50;1.00;;;;;;6308983;22;20450;-62
2022/09/19 09:22:39;;;;;;;7.23;3.93;;;17.00;99.90;;;;;;6310463;22;20451;-63
2022/09/19 09:25:13;;;;;;;8.50;3.60;;;16.60;1.00;;;;;;6309837;22;20416;-63
2022/09/19 09:27:57;;;;;;;7.47;3.60;;;16.30;1.00;;;;;;6309746;22;20427;-63
2022/09/19 09:30:24;;;;;;;8.43;3.97;;;15.90;99.90;;;;;;6310105;22;20387;-63
2022/09/19 09:33:03;;;;;;;9.03;4.90;;;16.10;99.90;;;;;;6309871;22;20391;-63
2022/09/19 09:35:36;;;;;;;8.17;4.20;;;16.20;99.90;;;;;;6309590;22;20424;-62
2022/09/19 09:38:21;;;;;;;10.90;4.20;;;16.30;1.00;;;;;;6309715;22;20412;-64
2022/09/19 09:43:47;;;;;;;11.03;4.50;;;16.40;99.90;;;;;;6307872;22;20435;-63
2022/09/19 09:46:24;;;;;;;7.57;4.33;;;16.70;99.90;;;;;;6308341;22;20418;-63
2022/09/19 09:48:54;;;;;;;5.63;3.80;;;16.70;99.90;;;;;;6306431;22;20416;-63
2022/09/19 09:51:34;;;;;;;5.97;3.40;;;17.50;1.00;;;;;;6306789;22;20811;-63
2022/09/19 09:57:08;;;;;;;10.40;4.93;;;17.50;99.90;;;;;;6307035;22;20427;-65
2022/09/19 10:05:33;;;;;;;8.03;4.80;;;15.60;1.00;;;;;;6309228;22;20454;-64
2022/09/19 10:08:16;;;;;;;8.37;5.60;;;15.20;1.00;;;;;;6310115;22;20390;-64
2022/09/19 10:10:47;;;;;;;6.67;5.20;;;15.10;1.00;;;;;;6308569;22;20457;-64
2022/09/19 10:13:26;;;;;;;8.70;4.63;;;14.90;1.00;;;;;;6308863;22;20398;-65
2022/09/19 10:15:55;;;;;;;9.07;5.70;;;15.10;1.00;;;;;;6308507;22;20442;-65
2022/09/19 10:18:30;;;;;;;6.00;3.70;;;15.90;1.00;;;;;;6308914;22;20427;-64
2022/09/19 10:20:59;;;;;;;12.40;4.87;;;16.70;1.00;;;;;;6308436;22;20447;-65
2022/09/19 10:23:30;;;;;;;10.07;4.70;;;17.10;99.90;;;;;;6309427;22;20425;-64
2022/09/19 10:26:02;;;;;;;11.00;4.50;;;17.30;99.90;;;;;;6309402;22;20526;-64
2022/09/19 10:28:34;;;;;;;11.87;3.80;;;16.80;99.90;;;;;;6309517;22;20424;-65
2022/09/19 10:31:06;;;;;;;11.60;4.03;;;16.50;99.90;;;;;;6308446;22;20413;-65
2022/09/19 10:33:42;;;;;;;8.50;4.07;;;16.50;99.90;;;;;;6309381;22;20419;-65
2022/09/19 10:36:20;;;;;;;10.57;3.40;;;16.60;99.90;;;;;;6308092;22;20419;-64
2022/09/19 10:38:56;;;;;;;5.30;3.20;;;16.30;99.90;;;;;;6305494;22;20447;-64
2022/09/19 10:41:28;;;;;;;5.57;3.63;;;16.40;99.90;;;;;;6308564;22;20494;-65
2022/09/19 10:43:57;;;;;;;7.87;4.20;;;16.30;99.90;;;;;;6309917;22;20725;-65
2022/09/19 10:46:34;;;;;;;9.80;5.40;;;15.90;99.90;;;;;;6308116;22;20421;-64
2022/09/19 10:49:02;;;;;;;6.10;4.90;;;15.90;99.90;;;;;;6307112;22;20877;-64
2022/09/19 10:51:34;;;;;;;9.50;4.50;;;16.00;99.90;;;;;;6309095;22;20542;-64
2022/09/19 10:54:11;;;;;;;8.17;4.57;;;16.10;99.90;;;;;;6311156;22;20868;-64
2022/09/19 10:56:42;;;;;;;9.37;3.90;;;16.50;99.90;;;;;;6306150;22;20415;-65
2022/09/19 10:59:27;;;;;;;9.33;3.60;;;16.30;99.90;;;;;;6307807;22;20423;-64
2022/09/19 11:02:19;;;;;;;14.40;5.17;;;16.10;1.00;;;;;;6310758;22;20448;-64
2022/09/19 11:04:59;;;;;;;12.53;5.10;;;16.20;1.00;;;;;;6309213;22;20673;-64
2022/09/19 11:07:28;;;;;;;10.60;5.10;;;15.90;1.00;;;;;;6310985;22;20424;-64
2022/09/19 11:09:59;;;;;;;6.73;5.20;;;15.60;1.00;;;;;;6311025;22;20883;-65
2022/09/19 11:12:30;;;;;;;9.77;4.40;;;15.80;1.00;;;;;;6311565;22;20961;-64
2022/09/19 11:14:57;;;;;;;9.43;3.70;;;16.10;1.00;;;;;;6310661;22;20829;-64
2022/09/19 11:17:43;;;;;;;12.00;6.30;;;16.90;1.00;;;;;;6311386;22;20419;-64
2022/09/19 11:20:19;;;;;;;8.73;4.27;;;17.10;99.90;;;;;;6311229;22;20483;-63
2022/09/19 11:23:13;;;;;;;4.90;3.37;;;18.00;1.00;;;;;;6310611;22;20418;-63
2022/09/19 11:25:51;;;;;;;5.13;2.73;;;16.90;99.90;;;;;;6311539;22;20411;-62
2022/09/19 11:28:29;;;;;;;6.70;3.13;;;16.40;99.90;;;;;;6310870;22;20420;-62
2022/09/19 11:31:06;;;;;;;4.57;3.47;;;16.80;99.90;;;;;;6309913;22;20424;-62
2022/09/19 11:33:55;;;;;;;10.83;3.80;;;17.00;99.90;;;;;;6311213;22;20431;-62
2022/09/19 11:36:34;;;;;;;4.50;2.73;;;17.60;99.90;;;;;;6311230;22;20420;-62
2022/09/19 11:39:07;;;;;;;7.40;3.10;;;17.80;99.90;;;;;;6309994;22;20493;-62
2022/09/19 11:41:45;;;;;;;9.70;2.93;;;18.00;99.90;;;;;;6310087;22;20451;-62
2022/09/19 11:44:43;;;;;;;6.27;3.00;;;18.20;99.90;;;;;;6310652;22;20854;-62
2022/09/19 11:47:22;;;;;;;3.83;2.50;;;18.40;99.90;;;;;;6311091;22;20849;-62
2022/09/19 11:50:11;;;;;;;8.23;3.20;;;18.70;99.90;;;;;;6311612;22;20423;-62
2022/09/19 11:52:50;;;;;;;5.17;3.70;;;19.10;99.90;;;;;;6311114;22;20421;-62
2022/09/19 11:55:30;;;;;;;5.97;3.30;;;20.00;99.90;;;;;;6311151;22;20498;-62
2022/09/19 11:58:07;;;;;;;8.30;2.90;;;19.80;99.90;;;;;;6311195;22;20514;-62
2022/09/19 12:00:50;;;;;;;10.77;3.03;;;19.00;99.90;;;;;;6310545;22;20912;-62
2022/09/19 12:03:28;;;;;;;6.27;3.27;;;18.20;99.90;;;;;;6310009;22;20477;-63
2022/09/19 12:06:13;;;;;;;9.70;2.80;;;17.40;99.90;;;;;;6309880;22;20481;-64
2022/09/19 12:08:59;;;;;;;6.37;2.47;;;16.80;99.90;;;;;;6310018;22;20416;-62
2022/09/19 12:11:37;;;;;;;7.00;3.67;;;16.40;99.90;;;;;;6311093;22;20451;-63
2022/09/19 12:14:12;;;;;;;6.63;2.07;;;15.80;99.90;;;;;;6311066;22;20515;-63
2022/09/19 12:16:45;;;;;;;4.97;2.57;;;15.30;99.90;;;;;;6310326;22;20400;-61
2022/09/19 12:19:17;;;;;;;4.13;2.03;;;14.60;99.90;;;;;;6310022;22;20519;-61
2022/09/19 12:21:52;;;;;;;4.73;2.80;;;13.50;1.00;;;;;;6310659;22;20454;-60
2022/09/19 12:27:13;;;;;;;4.03;2.73;;;12.80;99.90;;;;;;6309441;22;20475;-65
2022/09/19 12:29:48;;;;;;;3.10;1.80;;;12.90;66.80;;;;;;6309107;22;20416;-65
2022/09/19 12:32:25;;;;;;;4.70;1.50;;;12.90;1.00;;;;;;6310651;22;20716;-66
2022/09/19 12:35:01;;;;;;;4.90;2.00;;;13.10;1.00;;;;;;6310556;22;20423;-65
2022/09/19 12:37:36;;;;;;;3.00;1.60;;;14.00;28.60;;;;;;6310257;22;20398;-63
2022/09/19 12:40:24;;;;;;;3.00;1.80;;;14.80;1.00;;;;;;6309923;22;20561;-63
2022/09/19 12:43:01;;;;;;;2.40;1.70;;;14.80;1.00;;;;;;6310308;22;20415;-64
2022/09/19 12:45:35;;;;;;;4.50;1.90;;;14.50;99.90;;;;;;6310435;22;20515;-64
2022/09/19 12:48:12;;;;;;;2.50;1.63;;;14.50;99.90;;;;;;6311316;22;20474;-64
2022/09/19 12:50:44;;;;;;;3.23;1.50;;;14.40;99.90;;;;;;6309838;22;20715;-63
2022/09/19 12:53:27;;;;;;;5.00;1.83;;;14.50;99.90;;;;;;6309096;22;20420;-63
2022/09/19 12:56:06;;;;;;;2.67;1.70;;;14.30;99.90;;;;;;6308916;22;20416;-63
2022/09/19 12:58:43;;;;;;;3.13;2.00;;;14.80;1.00;;;;;;6309443;22;20420;-64
2022/09/19 13:01:25;;;;;;;3.93;1.90;;;15.30;99.90;;;;;;6308301;22;20716;-63
2022/09/19 13:04:10;;;;;;;2.53;2.00;;;15.50;99.90;;;;;;6307626;22;20522;-63
2022/09/19 13:06:42;;;;;;;2.20;1.70;;;16.10;99.90;;;;;;6308523;22;20447;-63
2022/09/19 13:09:18;;;;;;;2.30;1.57;;;16.30;99.90;;;;;;6308445;22;20520;-63
2022/09/19 13:11:50;;;;;;;4.07;2.00;;;16.80;99.90;;;;;;6306912;22;20395;-62
2022/09/19 13:14:23;;;;;;;4.83;2.37;;;16.90;99.90;;;;;;6307327;22;20463;-63
2022/09/19 13:25:15;;;;;;;3.60;2.80;;;17.00;99.90;;;;;;6309344;22;20487;-62
2022/09/19 13:27:45;;;;;;;4.60;2.50;;;16.80;99.90;;;;;;6308365;22;20419;-62
2022/09/19 13:30:48;;;;;;;3.20;1.93;;;16.50;99.90;;;;;;6309287;22;20412;-62
2022/09/19 13:33:22;;;;;;;6.87;2.60;;;15.80;99.90;;;;;;6307594;22;20865;-62
2022/09/19 13:35:53;;;;;;;3.93;2.40;;;16.00;99.90;;;;;;6308668;22;20412;-62
2022/09/19 13:38:25;;;;;;;5.40;2.50;;;16.00;99.90;;;;;;6309034;22;20515;-63
2022/09/19 13:41:05;;;;;;;6.67;3.00;;;15.80;99.90;;;;;;6309186;22;20961;-62
2022/09/19 13:43:48;;;;;;;3.67;2.20;;;15.80;99.90;;;;;;6308611;22;20724;-62
2022/09/19 13:46:21;;;;;;;6.10;3.20;;;15.70;99.90;;;;;;6306433;22;20455;-62
2022/09/19 13:48:53;;;;;;;5.53;2.70;;;15.60;99.90;;;;;;6307057;22;20416;-62